sensor_id;sensor_type;location;lat;lon;timestamp;P1;durP1;ratioP1;P2;durP2;ratioP2
23346;SDS011;36852;45.466;11.066;2022-12-18T00:00:40;6.72;;;5.05;;
23346;SDS011;36852;45.466;11.066;2022-12-18T00:03:09;6.45;;;4.53;;
23346;SDS011;36852;45.466;11.066;2022-12-18T00:05:45;5.10;;;4.60;;
23346;SDS011;36852;45.466;11.066;2022-12-18T00:08:15;6.05;;;4.80;;
23346;SDS011;36852;45.466;11.066;2022-12-18T00:10:44;6.67;;;4.65;;
23346;SDS011;36852;45.466;11.066;2022-12-18T00:13:12;5.65;;;4.95;;
23346;SDS011;36852;45.466;11.066;2022-12-18T00:15:40;6.35;;;4.83;;
23346;SDS011;36852;45.466;11.066;2022-12-18T00:18:09;10.58;;;5.47;;
23346;SDS011;36852;45.466;11.066;2022-12-18T00:20:39;6.10;;;4.70;;
23346;SDS011;36852;45.466;11.066;2022-12-18T00:23:07;8.13;;;5.45;;
23346;SDS011;36852;45.466;11.066;2022-12-18T00:25:36;8.28;;;4.90;;
23346;SDS011;36852;45.466;11.066;2022-12-18T00:28:04;6.70;;;5.47;;
23346;SDS011;36852;45.466;11.066;2022-12-18T00:30:32;7.10;;;5.72;;
23346;SDS011;36852;45.466;11.066;2022-12-18T00:33:00;8.18;;;6.00;;
23346;SDS011;36852;45.466;11.066;2022-12-18T00:35:28;7.53;;;5.53;;
23346;SDS011;36852;45.466;11.066;2022-12-18T00:37:57;6.75;;;5.42;;
23346;SDS011;36852;45.466;11.066;2022-12-18T00:40:25;6.67;;;5.85;;
23346;SDS011;36852;45.466;11.066;2022-12-18T00:42:54;7.12;;;5.58;;
23346;SDS011;36852;45.466;11.066;2022-12-18T00:45:25;6.08;;;5.25;;
23346;SDS011;36852;45.466;11.066;2022-12-18T00:47:57;6.22;;;5.45;;
23346;SDS011;36852;45.466;11.066;2022-12-18T00:50:25;6.80;;;5.67;;
23346;SDS011;36852;45.466;11.066;2022-12-18T00:55:41;8.25;;;6.15;;
23346;SDS011;36852;45.466;11.066;2022-12-18T00:58:09;7.95;;;6.05;;
23346;SDS011;36852;45.466;11.066;2022-12-18T01:00:38;9.23;;;6.28;;
23346;SDS011;36852;45.466;11.066;2022-12-18T01:03:07;6.97;;;6.08;;
23346;SDS011;36852;45.466;11.066;2022-12-18T01:05:39;10.25;;;6.97;;
23346;SDS011;36852;45.466;11.066;2022-12-18T01:08:07;10.03;;;7.05;;
23346;SDS011;36852;45.466;11.066;2022-12-18T01:10:34;11.78;;;7.22;;
23346;SDS011;36852;45.466;11.066;2022-12-18T01:13:02;9.60;;;7.53;;
23346;SDS011;36852;45.466;11.066;2022-12-18T01:15:30;11.85;;;7.53;;
23346;SDS011;36852;45.466;11.066;2022-12-18T01:17:58;10.82;;;7.40;;
23346;SDS011;36852;45.466;11.066;2022-12-18T01:20:26;11.35;;;7.30;;
23346;SDS011;36852;45.466;11.066;2022-12-18T01:22:54;9.10;;;7.22;;
23346;SDS011;36852;45.466;11.066;2022-12-18T01:25:21;14.30;;;7.37;;
23346;SDS011;36852;45.466;11.066;2022-12-18T01:27:49;10.65;;;7.25;;
23346;SDS011;36852;45.466;11.066;2022-12-18T01:30:18;11.75;;;7.60;;
23346;SDS011;36852;45.466;11.066;2022-12-18T01:32:46;9.15;;;6.80;;
23346;SDS011;36852;45.466;11.066;2022-12-18T01:35:14;7.53;;;6.53;;
23346;SDS011;36852;45.466;11.066;2022-12-18T01:37:42;12.35;;;7.53;;
23346;SDS011;36852;45.466;11.066;2022-12-18T01:40:10;10.10;;;6.95;;
23346;SDS011;36852;45.466;11.066;2022-12-18T01:42:38;10.48;;;6.42;;
23346;SDS011;36852;45.466;11.066;2022-12-18T01:47:48;12.23;;;7.22;;
23346;SDS011;36852;45.466;11.066;2022-12-18T01:50:51;14.95;;;7.15;;
23346;SDS011;36852;45.466;11.066;2022-12-18T01:53:06;9.48;;;7.15;;
23346;SDS011;36852;45.466;11.066;2022-12-18T01:55:40;7.53;;;6.25;;
23346;SDS011;36852;45.466;11.066;2022-12-18T01:58:17;10.58;;;6.37;;
23346;SDS011;36852;45.466;11.066;2022-12-18T02:00:46;7.53;;;6.08;;
23346;SDS011;36852;45.466;11.066;2022-12-18T02:03:14;8.98;;;6.67;;
23346;SDS011;36852;45.466;11.066;2022-12-18T02:05:59;6.83;;;6.10;;
23346;SDS011;36852;45.466;11.066;2022-12-18T02:08:33;12.50;;;6.60;;
23346;SDS011;36852;45.466;11.066;2022-12-18T02:11:07;8.25;;;6.47;;
23346;SDS011;36852;45.466;11.066;2022-12-18T02:18:46;7.33;;;6.22;;
23346;SDS011;36852;45.466;11.066;2022-12-18T02:24:17;8.05;;;5.97;;
23346;SDS011;36852;45.466;11.066;2022-12-18T02:26:48;7.67;;;6.03;;
23346;SDS011;36852;45.466;11.066;2022-12-18T02:29:29;7.97;;;6.08;;
23346;SDS011;36852;45.466;11.066;2022-12-18T02:34:30;8.28;;;5.70;;
23346;SDS011;36852;45.466;11.066;2022-12-18T02:36:57;7.08;;;5.83;;
23346;SDS011;36852;45.466;11.066;2022-12-18T02:39:29;8.28;;;6.33;;
23346;SDS011;36852;45.466;11.066;2022-12-18T02:42:01;7.42;;;6.17;;
23346;SDS011;36852;45.466;11.066;2022-12-18T02:44:31;7.83;;;6.10;;
23346;SDS011;36852;45.466;11.066;2022-12-18T02:46:59;9.38;;;5.30;;
23346;SDS011;36852;45.466;11.066;2022-12-18T02:58:05;8.53;;;5.83;;
23346;SDS011;36852;45.466;11.066;2022-12-18T03:03:41;8.23;;;6.37;;
23346;SDS011;36852;45.466;11.066;2022-12-18T03:06:20;7.25;;;5.30;;
23346;SDS011;36852;45.466;11.066;2022-12-18T03:08:50;8.35;;;6.45;;
23346;SDS011;36852;45.466;11.066;2022-12-18T03:11:21;10.98;;;6.65;;
23346;SDS011;36852;45.466;11.066;2022-12-18T03:13:54;9.38;;;6.75;;
23346;SDS011;36852;45.466;11.066;2022-12-18T03:16:25;14.43;;;7.15;;
23346;SDS011;36852;45.466;11.066;2022-12-18T03:18:56;12.13;;;6.60;;
23346;SDS011;36852;45.466;11.066;2022-12-18T03:21:29;9.75;;;6.45;;
23346;SDS011;36852;45.466;11.066;2022-12-18T03:26:43;10.78;;;7.03;;
23346;SDS011;36852;45.466;11.066;2022-12-18T03:29:16;14.23;;;7.55;;
23346;SDS011;36852;45.466;11.066;2022-12-18T03:31:52;12.45;;;7.35;;
23346;SDS011;36852;45.466;11.066;2022-12-18T03:37:00;10.38;;;6.65;;
23346;SDS011;36852;45.466;11.066;2022-12-18T03:39:31;10.18;;;7.15;;
23346;SDS011;36852;45.466;11.066;2022-12-18T03:44:43;9.15;;;6.47;;
23346;SDS011;36852;45.466;11.066;2022-12-18T03:47:22;12.63;;;7.47;;
23346;SDS011;36852;45.466;11.066;2022-12-18T03:50:10;12.05;;;7.58;;
23346;SDS011;36852;45.466;11.066;2022-12-18T03:52:49;14.68;;;7.45;;
23346;SDS011;36852;45.466;11.066;2022-12-18T03:55:24;9.23;;;6.72;;
23346;SDS011;36852;45.466;11.066;2022-12-18T03:57:56;12.05;;;7.28;;
23346;SDS011;36852;45.466;11.066;2022-12-18T04:00:27;11.83;;;7.65;;
23346;SDS011;36852;45.466;11.066;2022-12-18T04:02:58;19.02;;;9.10;;
23346;SDS011;36852;45.466;11.066;2022-12-18T04:05:33;9.00;;;7.08;;
23346;SDS011;36852;45.466;11.066;2022-12-18T04:08:03;8.75;;;6.30;;
23346;SDS011;36852;45.466;11.066;2022-12-18T04:10:33;10.75;;;6.95;;
23346;SDS011;36852;45.466;11.066;2022-12-18T04:13:02;10.38;;;6.17;;
23346;SDS011;36852;45.466;11.066;2022-12-18T04:15:29;13.90;;;6.50;;
23346;SDS011;36852;45.466;11.066;2022-12-18T04:18:01;12.45;;;7.35;;
23346;SDS011;36852;45.466;11.066;2022-12-18T04:20:32;11.75;;;6.85;;
23346;SDS011;36852;45.466;11.066;2022-12-18T04:23:00;12.07;;;7.83;;
23346;SDS011;36852;45.466;11.066;2022-12-18T04:25:28;9.40;;;7.50;;
23346;SDS011;36852;45.466;11.066;2022-12-18T04:28:07;11.10;;;8.48;;
23346;SDS011;36852;45.466;11.066;2022-12-18T04:30:37;11.48;;;6.95;;
23346;SDS011;36852;45.466;11.066;2022-12-18T04:33:08;11.73;;;7.42;;
23346;SDS011;36852;45.466;11.066;2022-12-18T04:35:38;17.17;;;7.28;;
23346;SDS011;36852;45.466;11.066;2022-12-18T04:38:07;9.80;;;7.22;;
23346;SDS011;36852;45.466;11.066;2022-12-18T04:40:37;8.30;;;6.87;;
23346;SDS011;36852;45.466;11.066;2022-12-18T04:43:09;9.13;;;6.90;;
23346;SDS011;36852;45.466;11.066;2022-12-18T04:45:37;8.10;;;7.00;;
23346;SDS011;36852;45.466;11.066;2022-12-18T04:48:06;7.85;;;6.50;;
23346;SDS011;36852;45.466;11.066;2022-12-18T04:50:34;11.05;;;6.83;;
23346;SDS011;36852;45.466;11.066;2022-12-18T04:53:02;10.93;;;6.65;;
23346;SDS011;36852;45.466;11.066;2022-12-18T04:55:30;9.50;;;6.22;;
23346;SDS011;36852;45.466;11.066;2022-12-18T04:57:58;13.00;;;7.05;;
23346;SDS011;36852;45.466;11.066;2022-12-18T05:00:27;9.48;;;7.20;;
23346;SDS011;36852;45.466;11.066;2022-12-18T05:02:56;11.40;;;6.70;;
23346;SDS011;36852;45.466;11.066;2022-12-18T05:05:23;8.33;;;6.00;;
23346;SDS011;36852;45.466;11.066;2022-12-18T05:07:52;9.55;;;6.20;;
23346;SDS011;36852;45.466;11.066;2022-12-18T05:10:19;9.38;;;7.62;;
23346;SDS011;36852;45.466;11.066;2022-12-18T05:12:47;13.18;;;7.80;;
23346;SDS011;36852;45.466;11.066;2022-12-18T05:15:29;11.10;;;7.83;;
23346;SDS011;36852;45.466;11.066;2022-12-18T05:17:58;11.33;;;7.35;;
23346;SDS011;36852;45.466;11.066;2022-12-18T05:20:27;8.70;;;6.97;;
23346;SDS011;36852;45.466;11.066;2022-12-18T05:22:55;8.38;;;5.90;;
23346;SDS011;36852;45.466;11.066;2022-12-18T05:25:24;6.58;;;5.55;;
23346;SDS011;36852;45.466;11.066;2022-12-18T05:27:52;9.33;;;5.67;;
23346;SDS011;36852;45.466;11.066;2022-12-18T05:30:29;8.58;;;6.22;;
23346;SDS011;36852;45.466;11.066;2022-12-18T05:32:59;12.60;;;5.83;;
23346;SDS011;36852;45.466;11.066;2022-12-18T05:35:27;7.92;;;6.05;;
23346;SDS011;36852;45.466;11.066;2022-12-18T05:37:55;8.95;;;6.00;;
23346;SDS011;36852;45.466;11.066;2022-12-18T05:40:23;10.08;;;5.78;;
23346;SDS011;36852;45.466;11.066;2022-12-18T05:42:51;7.22;;;5.50;;
23346;SDS011;36852;45.466;11.066;2022-12-18T05:45:19;9.40;;;5.90;;
23346;SDS011;36852;45.466;11.066;2022-12-18T05:47:47;11.00;;;5.90;;
23346;SDS011;36852;45.466;11.066;2022-12-18T05:50:23;9.75;;;6.35;;
23346;SDS011;36852;45.466;11.066;2022-12-18T05:52:51;8.10;;;6.75;;
23346;SDS011;36852;45.466;11.066;2022-12-18T05:55:20;8.10;;;6.40;;
23346;SDS011;36852;45.466;11.066;2022-12-18T05:57:47;8.05;;;6.22;;
23346;SDS011;36852;45.466;11.066;2022-12-18T06:00:16;9.68;;;6.25;;
23346;SDS011;36852;45.466;11.066;2022-12-18T06:02:47;9.28;;;6.08;;
23346;SDS011;36852;45.466;11.066;2022-12-18T06:05:15;7.42;;;5.78;;
23346;SDS011;36852;45.466;11.066;2022-12-18T06:07:47;9.18;;;6.22;;
23346;SDS011;36852;45.466;11.066;2022-12-18T06:10:15;8.20;;;6.03;;
23346;SDS011;36852;45.466;11.066;2022-12-18T06:12:42;9.50;;;5.90;;
23346;SDS011;36852;45.466;11.066;2022-12-18T06:15:10;9.35;;;5.67;;
23346;SDS011;36852;45.466;11.066;2022-12-18T06:17:38;7.78;;;6.20;;
23346;SDS011;36852;45.466;11.066;2022-12-18T06:20:07;8.25;;;6.35;;
23346;SDS011;36852;45.466;11.066;2022-12-18T06:22:37;11.53;;;7.30;;
23346;SDS011;36852;45.466;11.066;2022-12-18T06:25:09;10.23;;;6.67;;
23346;SDS011;36852;45.466;11.066;2022-12-18T06:27:37;10.30;;;7.83;;
23346;SDS011;36852;45.466;11.066;2022-12-18T06:30:08;11.78;;;7.87;;
23346;SDS011;36852;45.466;11.066;2022-12-18T06:32:37;10.90;;;8.28;;
23346;SDS011;36852;45.466;11.066;2022-12-18T06:35:06;9.43;;;7.80;;
23346;SDS011;36852;45.466;11.066;2022-12-18T06:37:34;10.50;;;7.55;;
23346;SDS011;36852;45.466;11.066;2022-12-18T06:40:03;11.33;;;7.65;;
23346;SDS011;36852;45.466;11.066;2022-12-18T06:42:35;13.58;;;7.85;;
23346;SDS011;36852;45.466;11.066;2022-12-18T06:45:03;12.68;;;7.50;;
23346;SDS011;36852;45.466;11.066;2022-12-18T06:47:31;12.78;;;8.35;;
23346;SDS011;36852;45.466;11.066;2022-12-18T06:49:59;9.95;;;7.58;;
23346;SDS011;36852;45.466;11.066;2022-12-18T06:52:27;10.30;;;7.67;;
23346;SDS011;36852;45.466;11.066;2022-12-18T06:54:55;13.98;;;7.12;;
23346;SDS011;36852;45.466;11.066;2022-12-18T06:57:24;11.03;;;7.90;;
23346;SDS011;36852;45.466;11.066;2022-12-18T06:59:52;13.32;;;8.00;;
23346;SDS011;36852;45.466;11.066;2022-12-18T07:02:20;12.03;;;7.65;;
23346;SDS011;36852;45.466;11.066;2022-12-18T07:04:48;11.33;;;7.42;;
23346;SDS011;36852;45.466;11.066;2022-12-18T07:07:19;11.50;;;8.23;;
23346;SDS011;36852;45.466;11.066;2022-12-18T07:09:49;12.70;;;8.08;;
23346;SDS011;36852;45.466;11.066;2022-12-18T07:12:17;11.78;;;7.30;;
23346;SDS011;36852;45.466;11.066;2022-12-18T07:14:45;12.43;;;8.48;;
23346;SDS011;36852;45.466;11.066;2022-12-18T07:17:13;10.85;;;7.87;;
23346;SDS011;36852;45.466;11.066;2022-12-18T07:19:42;9.05;;;7.15;;
23346;SDS011;36852;45.466;11.066;2022-12-18T07:22:10;8.55;;;7.40;;
23346;SDS011;36852;45.466;11.066;2022-12-18T07:24:38;13.65;;;8.85;;
23346;SDS011;36852;45.466;11.066;2022-12-18T07:27:07;13.08;;;9.55;;
23346;SDS011;36852;45.466;11.066;2022-12-18T07:29:35;15.90;;;11.68;;
23346;SDS011;36852;45.466;11.066;2022-12-18T07:32:04;15.93;;;10.90;;
23346;SDS011;36852;45.466;11.066;2022-12-18T07:34:32;14.90;;;10.70;;
23346;SDS011;36852;45.466;11.066;2022-12-18T07:37:01;13.88;;;10.58;;
23346;SDS011;36852;45.466;11.066;2022-12-18T07:39:29;12.53;;;10.40;;
23346;SDS011;36852;45.466;11.066;2022-12-18T07:41:56;24.00;;;10.98;;
23346;SDS011;36852;45.466;11.066;2022-12-18T07:44:42;14.83;;;9.80;;
23346;SDS011;36852;45.466;11.066;2022-12-18T07:47:11;14.85;;;8.95;;
23346;SDS011;36852;45.466;11.066;2022-12-18T07:49:39;12.58;;;9.58;;
23346;SDS011;36852;45.466;11.066;2022-12-18T07:52:08;13.80;;;9.80;;
23346;SDS011;36852;45.466;11.066;2022-12-18T07:54:36;17.10;;;10.93;;
23346;SDS011;36852;45.466;11.066;2022-12-18T07:57:05;14.50;;;11.43;;
23346;SDS011;36852;45.466;11.066;2022-12-18T07:59:35;13.80;;;10.68;;
23346;SDS011;36852;45.466;11.066;2022-12-18T08:02:04;14.50;;;10.88;;
23346;SDS011;36852;45.466;11.066;2022-12-18T08:04:32;15.98;;;11.10;;
23346;SDS011;36852;45.466;11.066;2022-12-18T08:07:00;17.57;;;11.38;;
23346;SDS011;36852;45.466;11.066;2022-12-18T08:09:28;15.25;;;10.85;;
23346;SDS011;36852;45.466;11.066;2022-12-18T08:11:56;15.68;;;10.68;;
23346;SDS011;36852;45.466;11.066;2022-12-18T08:14:24;17.57;;;12.15;;
23346;SDS011;36852;45.466;11.066;2022-12-18T08:16:52;12.68;;;11.25;;
23346;SDS011;36852;45.466;11.066;2022-12-18T08:19:20;15.28;;;10.72;;
23346;SDS011;36852;45.466;11.066;2022-12-18T08:21:49;19.30;;;10.58;;
23346;SDS011;36852;45.466;11.066;2022-12-18T08:24:16;12.10;;;9.80;;
23346;SDS011;36852;45.466;11.066;2022-12-18T08:26:45;14.33;;;11.40;;
23346;SDS011;36852;45.466;11.066;2022-12-18T08:29:16;17.50;;;12.00;;
23346;SDS011;36852;45.466;11.066;2022-12-18T08:31:46;15.68;;;11.57;;
23346;SDS011;36852;45.466;11.066;2022-12-18T08:34:14;14.63;;;10.80;;
23346;SDS011;36852;45.466;11.066;2022-12-18T08:36:42;16.70;;;10.90;;
23346;SDS011;36852;45.466;11.066;2022-12-18T08:39:09;18.27;;;11.97;;
23346;SDS011;36852;45.466;11.066;2022-12-18T08:41:38;15.45;;;11.88;;
23346;SDS011;36852;45.466;11.066;2022-12-18T08:44:09;23.45;;;12.33;;
23346;SDS011;36852;45.466;11.066;2022-12-18T08:46:56;19.75;;;12.30;;
23346;SDS011;36852;45.466;11.066;2022-12-18T08:49:24;38.10;;;25.05;;
23346;SDS011;36852;45.466;11.066;2022-12-18T08:54:41;23.10;;;13.20;;
23346;SDS011;36852;45.466;11.066;2022-12-18T08:57:08;19.23;;;12.73;;
23346;SDS011;36852;45.466;11.066;2022-12-18T08:59:36;17.42;;;13.32;;
23346;SDS011;36852;45.466;11.066;2022-12-18T09:02:04;21.52;;;13.53;;
23346;SDS011;36852;45.466;11.066;2022-12-18T09:04:32;20.05;;;13.65;;
23346;SDS011;36852;45.466;11.066;2022-12-18T09:07:00;20.62;;;12.40;;
23346;SDS011;36852;45.466;11.066;2022-12-18T09:09:28;18.65;;;13.00;;
23346;SDS011;36852;45.466;11.066;2022-12-18T09:11:56;19.75;;;13.58;;
23346;SDS011;36852;45.466;11.066;2022-12-18T09:14:24;18.20;;;12.85;;
23346;SDS011;36852;45.466;11.066;2022-12-18T09:16:57;17.85;;;12.93;;
23346;SDS011;36852;45.466;11.066;2022-12-18T09:19:25;21.62;;;14.10;;
23346;SDS011;36852;45.466;11.066;2022-12-18T09:21:54;16.82;;;12.90;;
23346;SDS011;36852;45.466;11.066;2022-12-18T09:24:23;15.68;;;11.63;;
23346;SDS011;36852;45.466;11.066;2022-12-18T09:26:54;17.60;;;10.98;;
23346;SDS011;36852;45.466;11.066;2022-12-18T09:29:24;22.05;;;10.28;;
23346;SDS011;36852;45.466;11.066;2022-12-18T09:31:54;15.55;;;10.08;;
23346;SDS011;36852;45.466;11.066;2022-12-18T09:34:22;14.43;;;11.12;;
23346;SDS011;36852;45.466;11.066;2022-12-18T09:36:50;14.38;;;10.85;;
23346;SDS011;36852;45.466;11.066;2022-12-18T09:39:21;15.10;;;11.30;;
23346;SDS011;36852;45.466;11.066;2022-12-18T09:41:51;13.85;;;11.12;;
23346;SDS011;36852;45.466;11.066;2022-12-18T09:47:14;14.78;;;11.75;;
23346;SDS011;36852;45.466;11.066;2022-12-18T09:50:03;14.07;;;11.30;;
23346;SDS011;36852;45.466;11.066;2022-12-18T09:52:41;16.52;;;12.70;;
23346;SDS011;36852;45.466;11.066;2022-12-18T09:58:00;17.00;;;11.28;;
23346;SDS011;36852;45.466;11.066;2022-12-18T10:00:44;19.75;;;11.60;;
23346;SDS011;36852;45.466;11.066;2022-12-18T10:03:13;17.87;;;11.97;;
23346;SDS011;36852;45.466;11.066;2022-12-18T10:06:01;15.35;;;12.28;;
23346;SDS011;36852;45.466;11.066;2022-12-18T10:08:36;15.40;;;12.07;;
23346;SDS011;36852;45.466;11.066;2022-12-18T10:17:07;16.77;;;13.08;;
23346;SDS011;36852;45.466;11.066;2022-12-18T10:19:39;15.35;;;12.65;;
23346;SDS011;36852;45.466;11.066;2022-12-18T10:27:43;16.73;;;11.40;;
23346;SDS011;36852;45.466;11.066;2022-12-18T10:30:16;14.90;;;12.47;;
23346;SDS011;36852;45.466;11.066;2022-12-18T10:32:45;14.85;;;11.68;;
23346;SDS011;36852;45.466;11.066;2022-12-18T10:40:50;15.60;;;12.40;;
23346;SDS011;36852;45.466;11.066;2022-12-18T10:43:38;15.08;;;11.95;;
23346;SDS011;36852;45.466;11.066;2022-12-18T10:48:47;16.20;;;11.95;;
23346;SDS011;36852;45.466;11.066;2022-12-18T10:54:01;15.50;;;11.40;;
23346;SDS011;36852;45.466;11.066;2022-12-18T10:56:33;14.78;;;11.75;;
23346;SDS011;36852;45.466;11.066;2022-12-18T10:59:04;14.55;;;12.13;;
23346;SDS011;36852;45.466;11.066;2022-12-18T11:09:59;17.23;;;12.25;;
23346;SDS011;36852;45.466;11.066;2022-12-18T11:12:19;18.05;;;12.73;;
23346;SDS011;36852;45.466;11.066;2022-12-18T11:14:50;18.17;;;12.43;;
23346;SDS011;36852;45.466;11.066;2022-12-18T11:17:30;27.55;;;13.05;;
23346;SDS011;36852;45.466;11.066;2022-12-18T11:19:55;15.65;;;11.95;;
23346;SDS011;36852;45.466;11.066;2022-12-18T11:22:26;17.23;;;13.58;;
23346;SDS011;36852;45.466;11.066;2022-12-18T11:24:57;17.73;;;13.35;;
23346;SDS011;36852;45.466;11.066;2022-12-18T11:27:29;18.42;;;12.35;;
23346;SDS011;36852;45.466;11.066;2022-12-18T11:30:40;16.85;;;13.60;;
23346;SDS011;36852;45.466;11.066;2022-12-18T11:32:38;18.02;;;13.05;;
23346;SDS011;36852;45.466;11.066;2022-12-18T11:35:17;16.70;;;13.58;;
23346;SDS011;36852;45.466;11.066;2022-12-18T11:37:53;19.17;;;13.40;;
23346;SDS011;36852;45.466;11.066;2022-12-18T11:40:33;17.92;;;12.55;;
23346;SDS011;36852;45.466;11.066;2022-12-18T11:43:06;18.50;;;13.25;;
23346;SDS011;36852;45.466;11.066;2022-12-18T11:45:53;18.30;;;13.03;;
23346;SDS011;36852;45.466;11.066;2022-12-18T11:48:45;17.67;;;12.95;;
23346;SDS011;36852;45.466;11.066;2022-12-18T11:51:25;16.17;;;12.60;;
23346;SDS011;36852;45.466;11.066;2022-12-18T11:54:23;15.88;;;12.35;;
23346;SDS011;36852;45.466;11.066;2022-12-18T11:56:48;14.63;;;11.73;;
23346;SDS011;36852;45.466;11.066;2022-12-18T12:05:29;18.25;;;12.23;;
23346;SDS011;36852;45.466;11.066;2022-12-18T12:24:42;14.53;;;11.88;;
23346;SDS011;36852;45.466;11.066;2022-12-18T12:30:39;19.75;;;13.05;;
23346;SDS011;36852;45.466;11.066;2022-12-18T12:36:03;20.75;;;13.85;;
23346;SDS011;36852;45.466;11.066;2022-12-18T12:38:50;17.17;;;13.20;;
23346;SDS011;36852;45.466;11.066;2022-12-18T12:41:24;14.85;;;12.90;;
23346;SDS011;36852;45.466;11.066;2022-12-18T12:44:18;15.23;;;13.10;;
23346;SDS011;36852;45.466;11.066;2022-12-18T12:46:51;16.17;;;12.95;;
23346;SDS011;36852;45.466;11.066;2022-12-18T12:49:21;15.50;;;12.45;;
23346;SDS011;36852;45.466;11.066;2022-12-18T12:51:55;18.92;;;12.93;;
23346;SDS011;36852;45.466;11.066;2022-12-18T12:54:27;15.05;;;12.15;;
23346;SDS011;36852;45.466;11.066;2022-12-18T12:59:39;15.60;;;12.82;;
23346;SDS011;36852;45.466;11.066;2022-12-18T13:12:55;16.42;;;12.95;;
23346;SDS011;36852;45.466;11.066;2022-12-18T13:18:23;15.72;;;13.00;;
23346;SDS011;36852;45.466;11.066;2022-12-18T13:23:31;14.73;;;11.75;;
23346;SDS011;36852;45.466;11.066;2022-12-18T13:36:51;14.05;;;12.10;;
23346;SDS011;36852;45.466;11.066;2022-12-18T13:39:24;12.23;;;10.93;;
23346;SDS011;36852;45.466;11.066;2022-12-18T13:44:38;11.48;;;10.38;;
23346;SDS011;36852;45.466;11.066;2022-12-18T13:50:22;11.83;;;10.63;;
23346;SDS011;36852;45.466;11.066;2022-12-18T13:52:51;10.65;;;9.48;;
23346;SDS011;36852;45.466;11.066;2022-12-18T13:55:20;11.18;;;9.30;;
23346;SDS011;36852;45.466;11.066;2022-12-18T13:57:49;12.15;;;9.60;;
23346;SDS011;36852;45.466;11.066;2022-12-18T14:02:54;10.15;;;9.15;;
23346;SDS011;36852;45.466;11.066;2022-12-18T14:05:27;10.75;;;9.05;;
23346;SDS011;36852;45.466;11.066;2022-12-18T14:08:11;10.93;;;9.35;;
23346;SDS011;36852;45.466;11.066;2022-12-18T14:10:42;12.20;;;10.20;;
23346;SDS011;36852;45.466;11.066;2022-12-18T14:13:24;11.15;;;9.95;;
23346;SDS011;36852;45.466;11.066;2022-12-18T14:15:59;10.43;;;9.43;;
23346;SDS011;36852;45.466;11.066;2022-12-18T14:18:39;10.48;;;9.48;;
23346;SDS011;36852;45.466;11.066;2022-12-18T14:21:18;11.20;;;9.98;;
23346;SDS011;36852;45.466;11.066;2022-12-18T14:23:48;11.35;;;10.25;;
23346;SDS011;36852;45.466;11.066;2022-12-18T14:26:26;12.05;;;10.15;;
23346;SDS011;36852;45.466;11.066;2022-12-18T14:28:57;10.80;;;9.60;;
23346;SDS011;36852;45.466;11.066;2022-12-18T14:31:28;11.30;;;10.20;;
23346;SDS011;36852;45.466;11.066;2022-12-18T14:33:58;11.30;;;10.20;;
23346;SDS011;36852;45.466;11.066;2022-12-18T14:36:26;11.85;;;10.65;;
23346;SDS011;36852;45.466;11.066;2022-12-18T14:39:00;13.58;;;10.98;;
23346;SDS011;36852;45.466;11.066;2022-12-18T14:41:26;14.70;;;10.78;;
23346;SDS011;36852;45.466;11.066;2022-12-18T14:43:56;12.60;;;10.45;;
23346;SDS011;36852;45.466;11.066;2022-12-18T14:46:38;11.50;;;10.30;;
23346;SDS011;36852;45.466;11.066;2022-12-18T14:51:58;13.70;;;10.72;;
23346;SDS011;36852;45.466;11.066;2022-12-18T14:54:30;14.50;;;11.90;;
23346;SDS011;36852;45.466;11.066;2022-12-18T14:57:00;14.47;;;11.68;;
23346;SDS011;36852;45.466;11.066;2022-12-18T14:59:31;14.95;;;11.18;;
23346;SDS011;36852;45.466;11.066;2022-12-18T15:05:03;12.50;;;10.70;;
23346;SDS011;36852;45.466;11.066;2022-12-18T15:07:41;12.28;;;9.85;;
23346;SDS011;36852;45.466;11.066;2022-12-18T15:12:44;12.05;;;9.88;;
23346;SDS011;36852;45.466;11.066;2022-12-18T15:18:50;12.13;;;9.85;;
23346;SDS011;36852;45.466;11.066;2022-12-18T15:20:50;13.45;;;10.18;;
23346;SDS011;36852;45.466;11.066;2022-12-18T15:23:21;16.55;;;11.53;;
23346;SDS011;36852;45.466;11.066;2022-12-18T15:25:55;15.78;;;9.43;;
23346;SDS011;36852;45.466;11.066;2022-12-18T15:28:26;14.90;;;11.05;;
23346;SDS011;36852;45.466;11.066;2022-12-18T15:33:45;16.07;;;11.83;;
23346;SDS011;36852;45.466;11.066;2022-12-18T15:36:22;15.55;;;12.10;;
23346;SDS011;36852;45.466;11.066;2022-12-18T15:38:54;16.50;;;12.05;;
23346;SDS011;36852;45.466;11.066;2022-12-18T15:41:25;16.60;;;11.75;;
23346;SDS011;36852;45.466;11.066;2022-12-18T15:43:56;15.85;;;11.55;;
23346;SDS011;36852;45.466;11.066;2022-12-18T15:46:25;15.75;;;11.97;;
23346;SDS011;36852;45.466;11.066;2022-12-18T15:48:54;17.07;;;12.82;;
23346;SDS011;36852;45.466;11.066;2022-12-18T15:51:28;16.35;;;13.08;;
23346;SDS011;36852;45.466;11.066;2022-12-18T15:54:01;17.70;;;12.33;;
23346;SDS011;36852;45.466;11.066;2022-12-18T15:56:32;17.67;;;11.73;;
23346;SDS011;36852;45.466;11.066;2022-12-18T15:59:19;21.00;;;11.25;;
23346;SDS011;36852;45.466;11.066;2022-12-18T16:01:49;14.80;;;11.25;;
23346;SDS011;36852;45.466;11.066;2022-12-18T16:04:21;16.25;;;11.90;;
23346;SDS011;36852;45.466;11.066;2022-12-18T16:06:50;15.28;;;11.53;;
23346;SDS011;36852;45.466;11.066;2022-12-18T16:09:20;18.07;;;11.43;;
23346;SDS011;36852;45.466;11.066;2022-12-18T16:11:50;16.55;;;11.78;;
23346;SDS011;36852;45.466;11.066;2022-12-18T16:14:20;14.90;;;11.33;;
23346;SDS011;36852;45.466;11.066;2022-12-18T16:16:55;15.25;;;11.75;;
23346;SDS011;36852;45.466;11.066;2022-12-18T16:19:25;21.42;;;12.73;;
23346;SDS011;36852;45.466;11.066;2022-12-18T16:21:55;17.17;;;12.73;;
23346;SDS011;36852;45.466;11.066;2022-12-18T16:24:29;16.42;;;12.00;;
23346;SDS011;36852;45.466;11.066;2022-12-18T16:26:56;16.82;;;12.05;;
23346;SDS011;36852;45.466;11.066;2022-12-18T16:29:27;17.57;;;12.40;;
23346;SDS011;36852;45.466;11.066;2022-12-18T16:31:56;15.78;;;12.43;;
23346;SDS011;36852;45.466;11.066;2022-12-18T16:34:26;16.82;;;11.75;;
23346;SDS011;36852;45.466;11.066;2022-12-18T16:37:00;16.82;;;12.07;;
23346;SDS011;36852;45.466;11.066;2022-12-18T16:39:35;17.73;;;12.05;;
23346;SDS011;36852;45.466;11.066;2022-12-18T16:42:12;17.67;;;10.90;;
23346;SDS011;36852;45.466;11.066;2022-12-18T16:44:52;14.70;;;11.38;;
23346;SDS011;36852;45.466;11.066;2022-12-18T16:47:20;16.40;;;12.28;;
23346;SDS011;36852;45.466;11.066;2022-12-18T16:49:48;18.48;;;13.08;;
23346;SDS011;36852;45.466;11.066;2022-12-18T16:52:21;16.93;;;12.30;;
23346;SDS011;36852;45.466;11.066;2022-12-18T16:54:49;17.12;;;11.35;;
23346;SDS011;36852;45.466;11.066;2022-12-18T16:57:18;16.70;;;11.70;;
23346;SDS011;36852;45.466;11.066;2022-12-18T16:59:50;20.97;;;13.65;;
23346;SDS011;36852;45.466;11.066;2022-12-18T17:02:24;20.48;;;13.40;;
23346;SDS011;36852;45.466;11.066;2022-12-18T17:04:55;19.50;;;12.33;;
23346;SDS011;36852;45.466;11.066;2022-12-18T17:07:24;16.50;;;11.45;;
23346;SDS011;36852;45.466;11.066;2022-12-18T17:09:53;15.78;;;12.10;;
23346;SDS011;36852;45.466;11.066;2022-12-18T17:12:22;18.77;;;12.70;;
23346;SDS011;36852;45.466;11.066;2022-12-18T17:14:50;22.98;;;12.75;;
23346;SDS011;36852;45.466;11.066;2022-12-18T17:17:19;20.10;;;13.40;;